Time;durP1;ratioP1;P1;durP2;ratioP2;P2;SDS_P1;SDS_P2;PMS_P1;PMS_P2;Temp;Humidity;BMP_temperature;BMP_pressure;BME280_temperature;BME280_humidity;BME280_pressure;Samples;Min_cycle;Max_cycle;Signal;HPM_P1;HPM_P2
2024/01/13 00:01:32;;;;;;;18.10;3.25;;;4.50;99.90;;;;;;5070354;28;20372;-72
2024/01/13 00:03:58;;;;;;;16.88;2.40;;;4.50;99.90;;;;;;5069405;28;20478;-72
2024/01/13 00:06:24;;;;;;;20.48;3.03;;;4.50;99.90;;;;;;5070556;28;20029;-72
2024/01/13 00:08:49;;;;;;;12.32;2.10;;;4.70;99.90;;;;;;5070903;28;20025;-71
2024/01/13 00:11:15;;;;;;;17.63;2.80;;;4.50;99.90;;;;;;5070309;28;20025;-72
2024/01/13 00:13:40;;;;;;;16.48;2.83;;;4.50;99.90;;;;;;5070508;28;20052;-72
2024/01/13 00:16:06;;;;;;;15.52;2.97;;;4.40;99.90;;;;;;5070345;28;20047;-72
2024/01/13 00:18:31;;;;;;;12.88;2.95;;;4.50;99.90;;;;;;5069705;28;20067;-72
2024/01/13 00:20:57;;;;;;;17.77;3.10;;;4.40;99.90;;;;;;5070196;28;20468;-71
2024/01/13 00:23:22;;;;;;;12.23;2.30;;;4.40;99.90;;;;;;5070527;28;20043;-73
2024/01/13 00:25:48;;;;;;;13.18;2.60;;;4.40;99.90;;;;;;5072080;28;20078;-72
2024/01/13 00:28:13;;;;;;;8.55;2.15;;;4.40;99.90;;;;;;5076951;28;20031;-72
2024/01/13 00:30:39;;;;;;;11.55;2.97;;;4.40;99.90;;;;;;5074124;28;20024;-72
2024/01/13 00:33:05;;;;;;;15.70;2.47;;;4.40;99.90;;;;;;5075309;28;20017;-71
2024/01/13 00:35:30;;;;;;;10.80;2.55;;;4.40;99.90;;;;;;5077168;28;20036;-72
2024/01/13 00:37:56;;;;;;;12.13;2.28;;;4.30;99.90;;;;;;5080144;28;20023;-72
2024/01/13 00:40:21;;;;;;;8.48;1.63;;;4.40;99.90;;;;;;5074054;28;20111;-72
2024/01/13 00:42:47;;;;;;;14.98;2.90;;;4.40;99.90;;;;;;5073263;28;20032;-72
2024/01/13 00:45:12;;;;;;;11.40;1.88;;;4.40;99.90;;;;;;5072251;28;20457;-71
2024/01/13 00:47:38;;;;;;;8.27;1.80;;;4.40;99.90;;;;;;5073183;28;20085;-72
2024/01/13 00:50:04;;;;;;;11.07;2.30;;;4.30;99.90;;;;;;5073394;28;20028;-72
2024/01/13 00:52:30;;;;;;;13.10;2.85;;;4.40;99.90;;;;;;5073217;28;20020;-71
2024/01/13 00:54:55;;;;;;;9.30;2.53;;;4.30;99.90;;;;;;5072359;28;20519;-72
2024/01/13 00:57:21;;;;;;;11.90;2.47;;;4.30;99.90;;;;;;5072785;28;20040;-72
2024/01/13 00:59:46;;;;;;;13.88;3.17;;;4.30;99.90;;;;;;5073114;28;20447;-72
2024/01/13 01:02:12;;;;;;;12.55;3.90;;;4.30;99.90;;;;;;5070464;28;20106;-71
2024/01/13 01:04:37;;;;;;;14.43;3.33;;;4.40;99.90;;;;;;5071838;28;20025;-71
2024/01/13 01:07:03;;;;;;;14.15;3.00;;;4.40;99.90;;;;;;5072682;28;20035;-71
2024/01/13 01:09:29;;;;;;;7.88;2.80;;;4.40;99.90;;;;;;5072346;28;20036;-71
2024/01/13 01:11:54;;;;;;;12.23;2.38;;;4.40;99.90;;;;;;5072678;28;20135;-71
2024/01/13 01:14:20;;;;;;;10.18;2.85;;;4.40;99.90;;;;;;5072206;28;20029;-72
2024/01/13 01:16:45;;;;;;;10.20;3.28;;;4.30;99.90;;;;;;5072686;28;20505;-72
2024/01/13 01:19:11;;;;;;;8.88;2.42;;;4.40;99.90;;;;;;5072668;28;20028;-71
2024/01/13 01:21:37;;;;;;;17.42;3.20;;;4.40;99.90;;;;;;5072528;28;20021;-71
2024/01/13 01:24:02;;;;;;;13.05;3.35;;;4.40;99.90;;;;;;5077483;28;20036;-72
2024/01/13 01:26:28;;;;;;;15.95;3.33;;;4.40;99.90;;;;;;5080778;28;20040;-71
2024/01/13 01:28:53;;;;;;;12.38;4.30;;;4.40;99.90;;;;;;5082709;28;20471;-71
2024/01/13 01:31:19;;;;;;;11.90;4.18;;;4.40;99.90;;;;;;5083545;28;20024;-71
2024/01/13 01:33:45;;;;;;;9.95;4.38;;;4.50;99.90;;;;;;5090091;28;20036;-73
2024/01/13 01:36:11;;;;;;;13.77;5.28;;;4.50;99.90;;;;;;5084713;28;20077;-72
2024/01/13 01:38:36;;;;;;;16.63;6.47;;;4.40;99.90;;;;;;5071760;28;20171;-72
2024/01/13 01:41:02;;;;;;;17.50;7.30;;;4.50;99.90;;;;;;5072391;28;20024;-72
2024/01/13 01:43:28;;;;;;;17.95;7.45;;;4.50;99.90;;;;;;5072789;28;20492;-71
2024/01/13 01:45:55;;;;;;;16.92;6.38;;;4.50;99.90;;;;;;5072087;28;20121;-72
2024/01/13 01:48:29;;;;;;;14.50;5.72;;;4.50;99.90;;;;;;5072311;28;20415;-72
2024/01/13 01:50:55;;;;;;;10.68;5.85;;;4.50;99.90;;;;;;5072474;28;20048;-71
2024/01/13 01:53:21;;;;;;;16.85;4.78;;;4.50;99.90;;;;;;5072120;28;20020;-73
2024/01/13 01:55:47;;;;;;;7.90;3.95;;;4.50;99.90;;;;;;5071337;28;20533;-73
2024/01/13 01:58:13;;;;;;;13.85;4.43;;;4.50;99.90;;;;;;5072003;28;20039;-72
2024/01/13 02:00:39;;;;;;;11.80;4.70;;;4.40;99.90;;;;;;5072021;28;20074;-72
2024/01/13 02:03:05;;;;;;;12.48;5.32;;;4.50;99.90;;;;;;5070804;28;20391;-72
2024/01/13 02:05:31;;;;;;;13.07;4.80;;;4.40;99.90;;;;;;5072022;28;20431;-72
2024/01/13 02:07:57;;;;;;;8.30;4.65;;;4.50;99.90;;;;;;5072825;28;20012;-72
2024/01/13 02:10:23;;;;;;;14.20;4.10;;;4.50;99.90;;;;;;5070482;28;20029;-72
2024/01/13 02:12:48;;;;;;;7.50;3.97;;;4.50;99.90;;;;;;5071719;28;20109;-73
2024/01/13 02:15:14;;;;;;;14.32;3.55;;;4.50;99.90;;;;;;5070470;28;20165;-71
2024/01/13 02:17:40;;;;;;;10.10;3.38;;;4.50;99.90;;;;;;5071592;28;20020;-72
2024/01/13 02:20:09;;;;;;;9.52;3.42;;;4.50;99.90;;;;;;5071590;28;20480;-72
2024/01/13 02:22:35;;;;;;;9.52;3.50;;;4.50;99.90;;;;;;5069873;28;20020;-71
2024/01/13 02:25:03;;;;;;;10.32;3.53;;;4.40;99.90;;;;;;5070568;28;20407;-71
2024/01/13 02:27:29;;;;;;;12.48;3.25;;;4.40;99.90;;;;;;5071647;28;20120;-72
2024/01/13 02:29:54;;;;;;;10.15;3.30;;;4.50;99.90;;;;;;5072066;28;20112;-71
2024/01/13 02:32:21;;;;;;;12.00;3.53;;;4.50;99.90;;;;;;5071289;28;20027;-71
2024/01/13 02:34:46;;;;;;;12.65;3.65;;;4.50;99.90;;;;;;5071203;28;20032;-72
2024/01/13 02:37:12;;;;;;;9.90;3.17;;;4.50;99.90;;;;;;5072080;28;20025;-71
2024/01/13 02:39:38;;;;;;;12.30;3.88;;;4.50;99.90;;;;;;5071107;28;20410;-72
2024/01/13 02:42:04;;;;;;;12.38;3.60;;;4.50;99.90;;;;;;5071681;28;20029;-72
2024/01/13 02:44:29;;;;;;;10.43;3.88;;;4.50;99.90;;;;;;5069587;28;20048;-72
2024/01/13 02:46:56;;;;;;;9.27;3.30;;;4.40;99.90;;;;;;5070814;28;20439;-71
2024/01/13 02:49:21;;;;;;;7.78;3.25;;;4.40;99.90;;;;;;5072287;28;20025;-71
2024/01/13 02:51:47;;;;;;;10.13;3.35;;;4.40;99.90;;;;;;5072884;28;20017;-72
2024/01/13 02:54:12;;;;;;;12.02;3.42;;;4.40;99.90;;;;;;5072243;28;20025;-72
2024/01/13 02:56:38;;;;;;;9.95;2.90;;;4.50;99.90;;;;;;5072081;28;20021;-72
2024/01/13 02:59:03;;;;;;;8.32;3.40;;;4.50;99.90;;;;;;5072125;28;20029;-71
2024/01/13 03:01:30;;;;;;;8.95;3.60;;;4.50;99.90;;;;;;5072082;28;20472;-71
2024/01/13 03:03:56;;;;;;;6.65;3.22;;;4.50;99.90;;;;;;5075146;28;20385;-72
2024/01/13 03:06:23;;;;;;;8.23;3.22;;;4.50;99.90;;;;;;5077072;28;20104;-72
2024/01/13 03:08:49;;;;;;;5.95;3.20;;;4.50;99.90;;;;;;5086243;28;20037;-71
2024/01/13 03:11:14;;;;;;;9.80;3.55;;;4.50;99.90;;;;;;5074440;28;20214;-72
2024/01/13 03:13:40;;;;;;;11.85;3.42;;;4.40;99.90;;;;;;5072212;28;20016;-73
2024/01/13 03:16:09;;;;;;;9.38;3.67;;;4.40;99.90;;;;;;5073333;28;20013;-74
2024/01/13 03:18:34;;;;;;;11.10;3.72;;;4.40;99.90;;;;;;5072993;28;20048;-74
2024/01/13 03:21:02;;;;;;;12.18;3.55;;;4.50;99.90;;;;;;5072838;28;20035;-72
2024/01/13 03:23:28;;;;;;;12.45;4.38;;;4.50;99.90;;;;;;5070987;28;20035;-73
2024/01/13 03:25:54;;;;;;;14.93;4.32;;;4.50;99.90;;;;;;5070932;28;20032;-72
2024/01/13 03:28:20;;;;;;;8.05;3.50;;;4.40;99.90;;;;;;5071510;28;20544;-73
2024/01/13 03:30:46;;;;;;;7.22;4.00;;;4.40;99.90;;;;;;5071535;28;20025;-72
2024/01/13 03:33:12;;;;;;;12.85;4.18;;;4.40;99.90;;;;;;5071374;28;20404;-73
2024/01/13 03:35:37;;;;;;;8.13;3.83;;;4.50;99.90;;;;;;5070047;28;20033;-72
2024/01/13 03:38:03;;;;;;;8.57;3.97;;;4.40;99.90;;;;;;5087414;28;20483;-72
2024/01/13 03:40:28;;;;;;;10.05;4.40;;;4.50;99.90;;;;;;5091618;28;20136;-72
2024/01/13 03:42:54;;;;;;;11.02;3.90;;;4.50;99.90;;;;;;5079416;28;20032;-72
2024/01/13 03:45:19;;;;;;;6.75;3.25;;;4.50;99.90;;;;;;5070764;28;20434;-73
2024/01/13 03:47:45;;;;;;;4.43;2.83;;;4.50;99.90;;;;;;5071448;28;20056;-72
2024/01/13 03:50:12;;;;;;;5.18;3.00;;;4.50;99.90;;;;;;5071419;28;20025;-72
2024/01/13 03:52:38;;;;;;;3.53;2.47;;;4.40;99.90;;;;;;5072230;28;20024;-73
2024/01/13 03:55:04;;;;;;;4.93;2.30;;;4.30;99.90;;;;;;5072888;28;20514;-73
2024/01/13 03:57:29;;;;;;;4.85;2.33;;;4.30;99.90;;;;;;5072145;28;20480;-71
2024/01/13 03:59:55;;;;;;;3.58;2.50;;;4.30;99.90;;;;;;5071572;28;20036;-72
2024/01/13 04:02:21;;;;;;;6.88;3.08;;;4.10;99.90;;;;;;5074122;28;20334;-71
2024/01/13 04:04:47;;;;;;;5.63;3.45;;;4.40;99.90;;;;;;5074510;28;20056;-71
2024/01/13 04:07:12;;;;;;;8.02;4.03;;;4.30;99.90;;;;;;5075440;28;20024;-71
2024/01/13 04:09:39;;;;;;;9.00;5.13;;;4.30;99.90;;;;;;5075806;28;20043;-72
2024/01/13 04:12:05;;;;;;;9.93;5.88;;;4.30;99.90;;;;;;5075875;28;20107;-70
2024/01/13 04:14:31;;;;;;;12.52;6.85;;;4.40;99.90;;;;;;5076179;28;20025;-71
2024/01/13 04:16:57;;;;;;;15.18;7.82;;;4.30;99.90;;;;;;5076278;28;20029;-71
2024/01/13 04:19:22;;;;;;;17.80;8.55;;;4.40;99.90;;;;;;5075291;28;20068;-72
2024/01/13 04:21:48;;;;;;;14.38;8.65;;;4.30;99.90;;;;;;5074414;28;20472;-71
2024/01/13 04:24:13;;;;;;;14.18;8.27;;;4.30;99.90;;;;;;5073598;28;20123;-71
2024/01/13 04:26:40;;;;;;;13.35;7.72;;;4.40;99.90;;;;;;5074538;28;20074;-73
2024/01/13 04:29:05;;;;;;;15.20;7.65;;;4.40;99.90;;;;;;5078685;28;20131;-71
2024/01/13 04:31:31;;;;;;;14.77;8.20;;;4.40;99.90;;;;;;5079074;28;20337;-71
2024/01/13 04:33:57;;;;;;;15.52;7.90;;;4.30;99.90;;;;;;5077433;28;20025;-71
2024/01/13 04:36:22;;;;;;;14.95;7.60;;;4.30;99.90;;;;;;5082649;28;20404;-71
2024/01/13 04:38:49;;;;;;;12.65;7.43;;;4.40;99.90;;;;;;5089523;28;20043;-72
2024/01/13 04:41:15;;;;;;;19.02;7.60;;;4.40;99.90;;;;;;5079621;28;20017;-71
2024/01/13 04:43:41;;;;;;;15.35;7.65;;;4.40;99.90;;;;;;5077684;28;20039;-69
2024/01/13 04:46:07;;;;;;;17.10;8.07;;;4.50;99.90;;;;;;5080893;28;20031;-70
2024/01/13 04:48:33;;;;;;;14.48;7.97;;;4.50;99.90;;;;;;5076400;28;20029;-71
2024/01/13 04:50:59;;;;;;;14.38;8.13;;;4.40;99.90;;;;;;5074250;28;20369;-70
2024/01/13 04:53:24;;;;;;;16.63;7.95;;;4.40;99.90;;;;;;5073788;28;20024;-71
2024/01/13 04:55:51;;;;;;;19.42;8.35;;;4.40;99.90;;;;;;5073788;28;20024;-69
2024/01/13 04:58:16;;;;;;;15.38;8.13;;;4.40;99.90;;;;;;5076815;28;20476;-70
2024/01/13 05:00:42;;;;;;;12.63;7.65;;;4.40;99.90;;;;;;5087053;28;20025;-72
2024/01/13 05:03:08;;;;;;;14.95;8.52;;;4.30;99.90;;;;;;5083652;28;20025;-71
2024/01/13 05:05:34;;;;;;;12.07;6.55;;;4.30;99.90;;;;;;5088143;28;20024;-72
2024/01/13 05:08:00;;;;;;;12.68;6.68;;;4.40;99.90;;;;;;5079069;28;20104;-70
2024/01/13 05:10:26;;;;;;;12.68;6.72;;;4.40;99.90;;;;;;5077096;28;20063;-70
2024/01/13 05:12:52;;;;;;;14.55;6.65;;;4.30;99.90;;;;;;5076415;28;20040;-73
2024/01/13 05:15:17;;;;;;;11.50;6.35;;;4.40;99.90;;;;;;5076325;28;20506;-70
2024/01/13 05:17:43;;;;;;;11.50;6.30;;;4.40;99.90;;;;;;5077379;28;20074;-72
2024/01/13 05:20:09;;;;;;;12.15;6.45;;;4.40;99.90;;;;;;5086330;28;20024;-73
2024/01/13 05:22:35;;;;;;;11.05;6.38;;;4.30;99.90;;;;;;5088007;28;20036;-71
2024/01/13 05:25:01;;;;;;;13.73;6.22;;;4.30;99.90;;;;;;5087107;28;20036;-75
2024/01/13 05:27:27;;;;;;;17.33;6.38;;;4.30;99.90;;;;;;5081889;28;20029;-75
2024/01/13 05:29:52;;;;;;;16.23;7.18;;;4.40;99.90;;;;;;5077486;28;20030;-77
2024/01/13 05:32:18;;;;;;;11.05;5.97;;;4.50;99.90;;;;;;5078432;28;20024;-74
2024/01/13 05:34:43;;;;;;;11.50;6.95;;;4.50;99.90;;;;;;5068629;28;20012;-74
2024/01/13 05:37:09;;;;;;;11.32;6.93;;;4.40;99.90;;;;;;5079353;28;20033;-73
2024/01/13 05:39:35;;;;;;;13.65;7.07;;;4.30;99.90;;;;;;5074286;28;20021;-74
2024/01/13 05:42:00;;;;;;;14.68;7.75;;;4.30;99.90;;;;;;5075299;28;20064;-73
2024/01/13 05:44:26;;;;;;;13.43;7.57;;;4.30;99.90;;;;;;5071418;28;20028;-74
2024/01/13 05:46:52;;;;;;;12.98;7.93;;;4.20;99.90;;;;;;5087353;28;20019;-72
2024/01/13 05:49:18;;;;;;;18.00;8.02;;;4.20;99.90;;;;;;5092446;28;20041;-71
2024/01/13 05:51:43;;;;;;;18.00;8.35;;;4.30;99.90;;;;;;5091118;28;20024;-73
2024/01/13 05:54:09;;;;;;;15.18;8.73;;;4.20;99.90;;;;;;5090067;28;20043;-73
2024/01/13 05:56:35;;;;;;;15.82;8.80;;;4.20;99.90;;;;;;5072212;28;20025;-72
2024/01/13 05:59:01;;;;;;;17.20;8.85;;;4.20;99.90;;;;;;5072920;28;20029;-73
2024/01/13 06:01:27;;;;;;;17.00;8.93;;;4.10;99.90;;;;;;5071875;28;20104;-71
2024/01/13 06:03:53;;;;;;;14.68;8.63;;;4.20;99.90;;;;;;5071730;28;20028;-72
2024/01/13 06:06:18;;;;;;;20.98;9.48;;;4.20;99.90;;;;;;5071924;28;20082;-72
2024/01/13 06:08:44;;;;;;;18.80;9.52;;;4.20;99.90;;;;;;5071501;28;20025;-70
2024/01/13 06:11:10;;;;;;;15.50;8.90;;;4.20;99.90;;;;;;5068795;28;20458;-73
2024/01/13 06:13:36;;;;;;;14.50;8.90;;;4.20;99.90;;;;;;5071473;28;20105;-73
2024/01/13 06:16:01;;;;;;;14.70;8.73;;;4.40;99.90;;;;;;5070276;28;20408;-73
2024/01/13 06:18:27;;;;;;;17.90;8.82;;;4.20;99.90;;;;;;5070002;28;20020;-71
2024/01/13 06:20:53;;;;;;;20.13;9.13;;;4.20;99.90;;;;;;5070925;28;20017;-71
2024/01/13 06:23:19;;;;;;;13.65;8.27;;;4.20;99.90;;;;;;5070939;28;20020;-72
2024/01/13 06:25:44;;;;;;;14.02;7.82;;;4.20;99.90;;;;;;5068804;28;20039;-72
2024/01/13 06:28:10;;;;;;;14.55;8.05;;;4.20;99.90;;;;;;5072249;28;20028;-71
2024/01/13 06:30:36;;;;;;;15.63;7.28;;;4.20;99.90;;;;;;5072474;28;20108;-70
2024/01/13 06:33:02;;;;;;;14.55;7.65;;;4.30;99.90;;;;;;5072796;28;20048;-72
2024/01/13 06:35:28;;;;;;;10.82;7.10;;;4.30;99.90;;;;;;5068959;28;20032;-72
2024/01/13 06:37:53;;;;;;;13.05;7.40;;;4.20;99.90;;;;;;5072792;28;20476;-75
2024/01/13 06:40:19;;;;;;;12.77;7.82;;;4.30;99.90;;;;;;5071406;28;20032;-72
2024/01/13 06:42:45;;;;;;;11.65;7.68;;;4.30;99.90;;;;;;5072907;28;20028;-71
2024/01/13 06:45:10;;;;;;;12.70;8.20;;;4.30;99.90;;;;;;5070932;28;20028;-74
2024/01/13 06:47:36;;;;;;;14.30;8.40;;;4.20;99.90;;;;;;5071849;28;20032;-72
2024/01/13 06:50:03;;;;;;;12.98;8.23;;;4.30;99.90;;;;;;5072137;28;20024;-71
2024/01/13 06:52:28;;;;;;;16.10;8.90;;;4.30;99.90;;;;;;5071682;28;20045;-71
2024/01/13 06:54:54;;;;;;;14.35;8.38;;;4.20;99.90;;;;;;5071482;28;20458;-70
2024/01/13 06:57:20;;;;;;;16.08;9.65;;;4.20;99.90;;;;;;5071711;28;20025;-70
2024/01/13 06:59:46;;;;;;;16.65;9.73;;;4.30;99.90;;;;;;5071738;28;20023;-70
2024/01/13 07:02:12;;;;;;;15.70;9.82;;;4.20;99.90;;;;;;5070699;28;20470;-71
2024/01/13 07:04:38;;;;;;;19.52;9.98;;;4.20;99.90;;;;;;5072865;28;20069;-73
2024/01/13 07:07:05;;;;;;;19.20;10.52;;;4.20;99.90;;;;;;5071513;28;20036;-72
2024/01/13 07:09:30;;;;;;;20.42;11.32;;;4.30;99.90;;;;;;5071176;28;20081;-70
2024/01/13 07:11:56;;;;;;;19.95;11.23;;;4.30;99.90;;;;;;5070744;28;20024;-74
2024/01/13 07:14:22;;;;;;;18.13;10.18;;;4.20;99.90;;;;;;5071393;28;20020;-74
2024/01/13 07:16:47;;;;;;;21.15;10.82;;;4.20;99.90;;;;;;5071810;28;20017;-74
2024/01/13 07:19:15;;;;;;;19.20;11.32;;;4.20;99.90;;;;;;5071458;28;20037;-74
2024/01/13 07:21:40;;;;;;;18.55;10.63;;;4.20;99.90;;;;;;5072269;28;20141;-76
2024/01/13 07:24:08;;;;;;;16.50;10.00;;;4.20;99.90;;;;;;5071251;28;20058;-73
2024/01/13 07:26:40;;;;;;;17.33;9.25;;;4.20;99.90;;;;;;5071441;28;20372;-74
2024/01/13 07:29:05;;;;;;;17.15;9.32;;;4.10;99.90;;;;;;5071361;28;20033;-71
2024/01/13 07:31:31;;;;;;;14.65;8.73;;;4.10;99.90;;;;;;5071029;28;20048;-72
2024/01/13 07:33:57;;;;;;;14.32;8.43;;;4.10;99.90;;;;;;5072316;28;20029;-73
2024/01/13 07:36:22;;;;;;;13.25;7.93;;;4.20;99.90;;;;;;5073623;28;20031;-70
2024/01/13 07:38:48;;;;;;;13.23;7.82;;;4.10;99.90;;;;;;5075709;28;20031;-71
2024/01/13 07:41:13;;;;;;;18.48;8.73;;;4.10;99.90;;;;;;5075400;28;20082;-72
2024/01/13 07:43:39;;;;;;;15.20;8.50;;;4.20;99.90;;;;;;5087497;28;20020;-72
2024/01/13 07:46:05;;;;;;;16.02;8.57;;;4.20;99.90;;;;;;5075004;28;20460;-71
2024/01/13 07:48:30;;;;;;;18.52;10.00;;;4.20;99.90;;;;;;5076440;28;20096;-72
2024/01/13 07:50:56;;;;;;;19.67;9.05;;;4.20;99.90;;;;;;5076147;28;20028;-70
2024/01/13 07:53:22;;;;;;;16.35;8.63;;;4.20;99.90;;;;;;5076003;28;20100;-72
2024/01/13 07:55:47;;;;;;;14.80;8.35;;;4.30;99.90;;;;;;5075622;28;20468;-71
2024/01/13 07:58:13;;;;;;;11.60;6.90;;;4.30;99.90;;;;;;5075356;28;20071;-70
2024/01/13 08:00:38;;;;;;;11.23;6.25;;;4.20;99.90;;;;;;5074876;28;20032;-70
2024/01/13 08:03:04;;;;;;;11.10;6.32;;;4.30;99.90;;;;;;5075777;28;20082;-71
2024/01/13 08:05:31;;;;;;;11.98;6.05;;;4.30;99.90;;;;;;5074484;28;20028;-74
2024/01/13 08:07:57;;;;;;;9.43;5.28;;;4.20;99.90;;;;;;5075858;28;20107;-76
2024/01/13 08:10:23;;;;;;;7.30;4.40;;;4.20;99.90;;;;;;5075309;28;20052;-70
2024/01/13 08:12:48;;;;;;;7.80;4.50;;;4.30;99.90;;;;;;5075897;28;20025;-73
2024/01/13 08:15:14;;;;;;;9.32;5.00;;;4.40;99.90;;;;;;5075404;28;20024;-71
2024/01/13 08:17:40;;;;;;;7.18;4.57;;;4.30;99.90;;;;;;5074876;28;20052;-72
2024/01/13 08:20:07;;;;;;;9.68;5.00;;;4.30;99.90;;;;;;5075295;28;20107;-72
2024/01/13 08:22:32;;;;;;;9.18;5.00;;;4.30;99.90;;;;;;5075668;28;20021;-71
2024/01/13 08:24:58;;;;;;;6.82;5.10;;;4.30;99.90;;;;;;5075531;28;20127;-74
2024/01/13 08:27:25;;;;;;;8.95;5.03;;;4.30;99.90;;;;;;5075409;28;20032;-77
2024/01/13 08:29:50;;;;;;;6.70;4.78;;;4.30;99.90;;;;;;5077047;28;20112;-77
2024/01/13 08:32:16;;;;;;;9.23;5.88;;;4.20;99.90;;;;;;5076541;28;20052;-78
2024/01/13 08:34:41;;;;;;;8.57;5.45;;;4.20;99.90;;;;;;5074684;28;20085;-74
2024/01/13 08:37:07;;;;;;;8.55;5.43;;;4.30;99.90;;;;;;5075065;28;20025;-72
2024/01/13 08:39:33;;;;;;;8.45;5.97;;;4.20;99.90;;;;;;5075014;28;20028;-72
2024/01/13 08:41:59;;;;;;;8.35;4.85;;;4.30;99.90;;;;;;5075299;28;20031;-75
2024/01/13 08:44:25;;;;;;;8.13;5.13;;;4.30;99.90;;;;;;5073969;28;20135;-73
2024/01/13 08:46:50;;;;;;;6.15;4.57;;;4.30;99.90;;;;;;5075381;28;20079;-72
2024/01/13 08:49:16;;;;;;;7.72;4.28;;;4.30;99.90;;;;;;5074421;28;20021;-70
2024/01/13 08:51:42;;;;;;;5.50;3.60;;;4.30;99.90;;;;;;5074039;28;20027;-73
2024/01/13 08:54:08;;;;;;;5.38;4.07;;;4.10;99.90;;;;;;5075889;28;20020;-75
2024/01/13 08:56:34;;;;;;;6.30;3.72;;;4.30;99.90;;;;;;5075251;28;20032;-72
2024/01/13 08:59:01;;;;;;;8.48;5.15;;;4.40;99.90;;;;;;5074448;28;20024;-71
2024/01/13 09:01:27;;;;;;;6.28;4.18;;;4.40;99.90;;;;;;5072647;28;20033;-71
2024/01/13 09:03:52;;;;;;;6.50;4.05;;;4.50;99.90;;;;;;5079808;28;20027;-72
2024/01/13 09:06:18;;;;;;;5.00;3.83;;;4.50;99.90;;;;;;5094205;28;20057;-72
2024/01/13 09:08:43;;;;;;;6.63;4.30;;;4.50;99.90;;;;;;5096153;28;20032;-73
2024/01/13 09:11:09;;;;;;;6.43;4.18;;;4.50;99.90;;;;;;5093796;28;20028;-71
2024/01/13 09:13:35;;;;;;;10.88;4.53;;;4.50;99.90;;;;;;5094712;28;20373;-71
2024/01/13 09:16:00;;;;;;;6.72;4.93;;;4.60;99.90;;;;;;5096393;28;20024;-72
2024/01/13 09:18:26;;;;;;;10.60;5.22;;;4.60;99.90;;;;;;5097821;28;20387;-71
2024/01/13 09:20:52;;;;;;;10.52;4.80;;;4.60;99.90;;;;;;5095994;28;20076;-72
2024/01/13 09:23:17;;;;;;;10.38;4.63;;;4.60;99.90;;;;;;5099178;28;20031;-72
2024/01/13 09:25:46;;;;;;;8.55;4.63;;;4.60;99.90;;;;;;5091257;28;20036;-75
2024/01/13 09:28:12;;;;;;;10.27;4.72;;;4.50;99.90;;;;;;5066735;28;20028;-74
2024/01/13 09:30:40;;;;;;;6.53;3.83;;;4.60;99.90;;;;;;5075314;28;20085;-74
2024/01/13 09:33:05;;;;;;;6.03;3.85;;;4.60;99.90;;;;;;5073706;28;20095;-77
2024/01/13 09:35:31;;;;;;;8.45;3.35;;;4.60;99.90;;;;;;5073428;28;20074;-75
2024/01/13 09:37:59;;;;;;;7.38;3.83;;;4.60;99.90;;;;;;5073650;28;20017;-75
2024/01/13 09:40:27;;;;;;;7.30;4.22;;;4.60;99.90;;;;;;5078552;28;20029;-77
2024/01/13 09:43:19;;;;;;;9.15;4.30;;;4.60;99.90;;;;;;5094970;28;20035;-74
2024/01/13 09:45:51;;;;;;;5.63;3.22;;;4.60;99.90;;;;;;5073992;28;20016;-74
2024/01/13 09:48:20;;;;;;;8.55;3.25;;;4.60;99.90;;;;;;5075918;28;20017;-73
2024/01/13 09:50:54;;;;;;;8.93;4.40;;;4.50;99.90;;;;;;5096434;28;20032;-75
2024/01/13 09:53:31;;;;;;;10.98;4.25;;;4.60;99.90;;;;;;5093753;28;20060;-73
2024/01/13 09:56:10;;;;;;;10.85;4.28;;;4.60;99.90;;;;;;5098497;28;20040;-71
2024/01/13 09:58:38;;;;;;;7.60;3.90;;;4.50;99.90;;;;;;5092261;28;20017;-72
2024/01/13 10:01:06;;;;;;;5.93;3.70;;;4.60;99.90;;;;;;5094249;28;20058;-71
2024/01/13 10:03:31;;;;;;;7.07;3.83;;;4.70;99.90;;;;;;5089741;28;20012;-71
2024/01/13 10:05:57;;;;;;;7.82;3.97;;;4.60;99.90;;;;;;5078931;28;20028;-72
2024/01/13 10:08:31;;;;;;;6.45;3.60;;;4.60;99.90;;;;;;5094058;28;20032;-72
2024/01/13 10:10:57;;;;;;;5.90;3.75;;;4.60;99.90;;;;;;5073443;28;20021;-73
2024/01/13 10:13:26;;;;;;;4.97;3.40;;;4.60;99.90;;;;;;5075884;28;20094;-72
2024/01/13 10:15:52;;;;;;;4.88;3.53;;;4.60;99.90;;;;;;5073612;28;20021;-71
2024/01/13 10:18:22;;;;;;;8.70;3.92;;;4.60;99.90;;;;;;5074570;28;20089;-71
2024/01/13 10:20:49;;;;;;;5.53;3.67;;;4.70;99.90;;;;;;5072668;28;20021;-70
2024/01/13 10:23:15;;;;;;;5.95;4.45;;;4.70;99.90;;;;;;5072104;28;20033;-70
2024/01/13 10:25:41;;;;;;;5.80;3.70;;;4.80;99.90;;;;;;5071950;28;20421;-72
2024/01/13 10:28:06;;;;;;;6.05;3.88;;;4.70;99.90;;;;;;5072292;28;20151;-74
2024/01/13 10:30:32;;;;;;;6.53;4.28;;;4.80;99.90;;;;;;5071973;28;20056;-72
2024/01/13 10:33:01;;;;;;;6.28;4.03;;;4.80;99.90;;;;;;5072031;28;20092;-71
2024/01/13 10:35:30;;;;;;;7.93;4.40;;;4.80;99.90;;;;;;5073667;28;20104;-74
2024/01/13 10:37:59;;;;;;;9.20;4.28;;;4.80;99.90;;;;;;5073308;28;20028;-73
2024/01/13 10:40:26;;;;;;;10.77;5.15;;;4.80;99.90;;;;;;5072479;28;20033;-71
2024/01/13 10:42:58;;;;;;;7.55;4.10;;;4.80;99.90;;;;;;5071747;28;20024;-71
2024/01/13 10:45:25;;;;;;;7.32;3.92;;;4.90;99.90;;;;;;5071767;28;20020;-72
2024/01/13 10:47:52;;;;;;;11.63;6.35;;;4.80;99.90;;;;;;5072268;28;20029;-71
2024/01/13 10:50:19;;;;;;;9.60;4.75;;;4.90;99.90;;;;;;5071837;28;20475;-73
2024/01/13 10:53:16;;;;;;;8.15;4.38;;;4.90;99.90;;;;;;5072038;28;20074;-73
2024/01/13 10:55:43;;;;;;;9.25;4.60;;;4.90;99.90;;;;;;5059448;28;20609;-72
2024/01/13 10:58:10;;;;;;;8.77;4.70;;;5.00;99.90;;;;;;5071680;28;20032;-73
2024/01/13 11:00:37;;;;;;;10.55;4.85;;;5.00;99.90;;;;;;5071617;28;20024;-71
2024/01/13 11:03:04;;;;;;;10.38;5.22;;;4.90;99.90;;;;;;5073260;28;20020;-73
2024/01/13 11:05:30;;;;;;;10.57;4.75;;;4.90;99.90;;;;;;5073507;28;20090;-76
2024/01/13 11:07:55;;;;;;;10.77;5.00;;;4.90;99.90;;;;;;5072077;28;20468;-71
2024/01/13 11:10:29;;;;;;;6.60;4.07;;;4.90;99.90;;;;;;5071816;28;20032;-73
2024/01/13 11:13:03;;;;;;;4.97;4.03;;;4.90;99.90;;;;;;5071770;28;20032;-73
2024/01/13 11:15:42;;;;;;;6.00;3.95;;;4.90;99.90;;;;;;5071221;28;20025;-73
2024/01/13 11:18:12;;;;;;;6.45;3.90;;;4.90;99.90;;;;;;5073327;28;20492;-75
2024/01/13 11:21:02;;;;;;;5.50;3.55;;;4.90;99.90;;;;;;5073112;28;20029;-72
2024/01/13 11:23:38;;;;;;;7.07;3.40;;;5.00;99.90;;;;;;5072595;28;20032;-74
2024/01/13 11:26:04;;;;;;;6.55;3.50;;;4.90;99.90;;;;;;5073133;28;20035;-76
2024/01/13 11:28:52;;;;;;;7.07;3.45;;;5.10;99.90;;;;;;5055690;28;20025;-74
2024/01/13 11:31:36;;;;;;;6.75;3.00;;;5.00;99.90;;;;;;5073604;28;20025;-74
2024/01/13 11:34:04;;;;;;;6.43;3.20;;;5.00;99.90;;;;;;5071524;28;20043;-74
2024/01/13 11:36:34;;;;;;;7.40;3.65;;;4.90;99.90;;;;;;5071047;28;20464;-74
2024/01/13 11:39:01;;;;;;;5.65;3.25;;;5.00;99.90;;;;;;5070902;28;20025;-74
2024/01/13 11:41:41;;;;;;;9.70;3.78;;;5.00;99.90;;;;;;5071826;28;20029;-74
2024/01/13 11:44:08;;;;;;;6.00;3.30;;;5.00;99.90;;;;;;5070799;28;20025;-74
2024/01/13 11:46:44;;;;;;;8.88;3.75;;;5.00;99.90;;;;;;5071078;28;20029;-71
2024/01/13 11:49:11;;;;;;;6.60;3.90;;;5.00;99.90;;;;;;5071112;28;20056;-72
2024/01/13 11:51:58;;;;;;;10.63;4.93;;;5.00;99.90;;;;;;5071509;28;20500;-73
2024/01/13 11:54:25;;;;;;;8.20;4.50;;;5.00;99.90;;;;;;5076088;28;20029;-73
2024/01/13 11:56:52;;;;;;;7.93;4.72;;;5.00;99.90;;;;;;5071404;28;20092;-76
2024/01/13 11:59:18;;;;;;;9.10;4.47;;;5.00;99.90;;;;;;5070962;28;20021;-74
2024/01/13 12:01:45;;;;;;;13.10;6.57;;;5.10;99.90;;;;;;5073395;28;20028;-74
2024/01/13 12:04:11;;;;;;;9.30;5.20;;;5.10;99.90;;;;;;5073116;28;20035;-74
2024/01/13 12:06:37;;;;;;;33.00;15.52;;;5.10;99.90;;;;;;5075627;28;20063;-77
2024/01/13 12:09:03;;;;;;;15.65;7.28;;;5.00;99.90;;;;;;5078096;28;20028;-72
2024/01/13 12:11:28;;;;;;;13.20;6.43;;;5.10;99.90;;;;;;5071102;28;20021;-72
2024/01/13 12:13:54;;;;;;;11.02;6.40;;;5.10;99.90;;;;;;5070833;28;20047;-75
2024/01/13 12:16:20;;;;;;;14.82;6.60;;;5.00;99.90;;;;;;5071387;28;20052;-76
2024/01/13 12:18:46;;;;;;;12.55;6.43;;;5.10;99.90;;;;;;5071594;28;20016;-75
2024/01/13 12:21:14;;;;;;;12.57;6.15;;;5.10;99.90;;;;;;5073438;28;20082;-76
2024/01/13 12:23:41;;;;;;;12.30;6.18;;;5.10;99.90;;;;;;5074911;28;20044;-74
2024/01/13 12:26:07;;;;;;;11.70;6.80;;;5.10;99.90;;;;;;5062539;28;20094;-74
2024/01/13 12:28:33;;;;;;;11.15;6.07;;;5.10;99.90;;;;;;5061466;28;20414;-73
2024/01/13 12:31:03;;;;;;;10.95;7.25;;;5.20;99.90;;;;;;5058829;28;20029;-74
2024/01/13 12:33:31;;;;;;;12.43;7.15;;;5.20;99.90;;;;;;5077045;28;20024;-72
2024/01/13 12:36:04;;;;;;;12.27;6.65;;;5.20;99.90;;;;;;5077002;28;20029;-75
2024/01/13 12:38:30;;;;;;;13.75;7.53;;;5.20;99.90;;;;;;5082782;28;20410;-73
2024/01/13 12:40:57;;;;;;;16.83;7.78;;;5.20;99.90;;;;;;5074645;28;20389;-74
2024/01/13 12:43:26;;;;;;;13.85;8.00;;;5.20;99.90;;;;;;5074202;28;20024;-73
2024/01/13 12:45:54;;;;;;;15.25;8.27;;;5.30;99.90;;;;;;5073855;28;20020;-74
2024/01/13 12:48:20;;;;;;;14.60;7.38;;;5.60;99.90;;;;;;5079257;28;20024;-74